Time;durP1;ratioP1;P1;durP2;ratioP2;P2;SDS_P1;SDS_P2;PMS_P1;PMS_P2;Temp;Humidity;BMP_temperature;BMP_pressure;BME280_temperature;BME280_humidity;BME280_pressure;Samples;Min_cycle;Max_cycle;Signal;HPM_P1;HPM_P2
2024/02/18 00:00:33;;;;;;;9.90;8.80;;;15.70;55.00;;;;;;4977272;28;20212;-59
2024/02/18 00:02:59;;;;;;;9.50;8.60;;;15.80;55.40;;;;;;5002573;28;20884;-60
2024/02/18 00:05:24;;;;;;;9.60;8.20;;;15.80;54.90;;;;;;4970745;28;20282;-60
2024/02/18 00:07:50;;;;;;;11.40;8.83;;;15.90;54.80;;;;;;4968447;28;20596;-59
2024/02/18 00:10:16;;;;;;;11.30;8.80;;;15.90;54.50;;;;;;4970441;28;20203;-59
2024/02/18 00:12:41;;;;;;;9.60;8.60;;;15.90;54.40;;;;;;4970693;28;20219;-60
2024/02/18 00:15:07;;;;;;;9.77;8.37;;;15.90;54.40;;;;;;4973208;28;20560;-60
2024/02/18 00:17:33;;;;;;;8.50;7.60;;;16.00;54.50;;;;;;4971046;28;20230;-59
2024/02/18 00:19:58;;;;;;;10.23;9.23;;;16.00;54.50;;;;;;4984221;28;20422;-62
2024/02/18 00:22:24;;;;;;;11.43;8.63;;;16.10;54.30;;;;;;4970047;28;20211;-60
2024/02/18 00:24:53;;;;;;;10.00;8.37;;;16.10;53.90;;;;;;4984146;28;20184;-60
2024/02/18 00:27:18;;;;;;;8.93;8.13;;;16.20;53.80;;;;;;5002060;28;20260;-59
2024/02/18 00:29:44;;;;;;;9.43;8.57;;;16.20;53.90;;;;;;4969893;28;20438;-59
2024/02/18 00:32:09;;;;;;;10.47;9.43;;;16.20;53.90;;;;;;4969165;28;20213;-59
2024/02/18 00:34:35;;;;;;;9.97;9.07;;;16.20;53.70;;;;;;5017281;28;20608;-60
2024/02/18 00:37:01;;;;;;;10.13;8.83;;;16.10;53.60;;;;;;5058328;28;20192;-59
2024/02/18 00:39:27;;;;;;;10.50;9.07;;;16.00;53.90;;;;;;5061760;28;20267;-60
2024/02/18 00:41:53;;;;;;;10.03;9.13;;;15.90;54.00;;;;;;5024571;28;20558;-61
2024/02/18 00:44:23;;;;;;;8.90;7.30;;;15.70;54.30;;;;;;5053622;28;20660;-59
2024/02/18 00:46:50;;;;;;;9.80;8.80;;;15.60;55.00;;;;;;4996444;28;20203;-59
2024/02/18 00:49:15;;;;;;;8.17;7.37;;;15.60;55.60;;;;;;4996076;28;20841;-59
2024/02/18 00:51:41;;;;;;;9.50;8.60;;;15.70;55.20;;;;;;5006824;28;20442;-59
2024/02/18 00:54:07;;;;;;;10.27;7.93;;;15.70;54.90;;;;;;4983276;28;20245;-59
2024/02/18 00:56:32;;;;;;;8.80;8.00;;;15.70;54.90;;;;;;4980951;28;20207;-60
2024/02/18 00:58:58;;;;;;;9.17;8.03;;;15.80;54.70;;;;;;4977703;28;20187;-60
2024/02/18 01:01:23;;;;;;;8.77;7.70;;;15.90;54.60;;;;;;4980854;28;20199;-60
2024/02/18 01:03:49;;;;;;;8.87;7.97;;;15.90;54.40;;;;;;4986974;28;20195;-59
2024/02/18 01:06:14;;;;;;;14.33;7.77;;;16.00;54.50;;;;;;4973784;28;20211;-61
2024/02/18 01:08:41;;;;;;;11.23;9.20;;;15.90;54.70;;;;;;4976234;28;20179;-60
2024/02/18 01:11:06;;;;;;;9.30;8.10;;;15.80;55.20;;;;;;4974809;28;20195;-59
2024/02/18 01:13:32;;;;;;;14.27;9.43;;;15.90;55.40;;;;;;4979471;28;20461;-60
2024/02/18 01:15:58;;;;;;;9.67;8.27;;;16.00;55.60;;;;;;4982778;28;20217;-60
2024/02/18 01:18:23;;;;;;;10.97;8.60;;;16.00;54.50;;;;;;4998347;28;20244;-60
2024/02/18 01:20:49;;;;;;;10.57;8.27;;;16.00;54.30;;;;;;4979777;28;20214;-58
2024/02/18 01:23:14;;;;;;;9.07;7.80;;;15.90;54.30;;;;;;4975216;28;20207;-60
2024/02/18 01:25:40;;;;;;;9.40;8.50;;;15.90;54.60;;;;;;5006199;28;20187;-60
2024/02/18 01:28:06;;;;;;;13.60;8.77;;;15.80;54.80;;;;;;4990430;28;20187;-60
2024/02/18 01:30:31;;;;;;;8.67;7.77;;;15.90;54.80;;;;;;4989630;28;20191;-59
2024/02/18 01:32:57;;;;;;;9.80;8.80;;;16.00;54.60;;;;;;5018451;28;20195;-60
2024/02/18 01:35:22;;;;;;;8.40;7.50;;;16.10;54.40;;;;;;4984618;28;20188;-61
2024/02/18 01:37:48;;;;;;;8.13;7.30;;;16.10;54.20;;;;;;4993676;28;20203;-59
2024/02/18 01:40:14;;;;;;;9.23;8.40;;;16.10;54.10;;;;;;4991553;28;20224;-60
2024/02/18 01:42:40;;;;;;;8.27;7.43;;;16.20;54.50;;;;;;5005311;28;20250;-60
2024/02/18 01:45:08;;;;;;;9.40;7.80;;;16.20;54.40;;;;;;4969187;28;20236;-60
2024/02/18 01:47:36;;;;;;;9.30;7.67;;;16.20;54.20;;;;;;4971593;28;20548;-60
2024/02/18 01:50:03;;;;;;;8.93;7.90;;;16.30;54.50;;;;;;4974266;28;20448;-60
2024/02/18 01:52:29;;;;;;;10.80;9.10;;;16.30;54.50;;;;;;4971200;28;20439;-60
2024/02/18 01:54:56;;;;;;;10.60;8.70;;;16.30;54.00;;;;;;5005312;28;20469;-61
2024/02/18 01:57:24;;;;;;;10.13;8.87;;;16.40;53.70;;;;;;4979795;28;20210;-59
2024/02/18 01:59:50;;;;;;;11.97;8.00;;;16.30;53.90;;;;;;4986109;28;20422;-61
2024/02/18 02:02:16;;;;;;;9.23;8.10;;;16.30;53.90;;;;;;4967374;28;20684;-60
2024/02/18 02:04:41;;;;;;;10.20;7.83;;;16.30;54.00;;;;;;4976434;28;20451;-60
2024/02/18 02:07:07;;;;;;;9.23;7.57;;;16.30;53.90;;;;;;4967356;28;20199;-60
2024/02/18 02:09:33;;;;;;;14.73;8.53;;;16.20;54.40;;;;;;4971843;28;20188;-60
2024/02/18 02:12:00;;;;;;;10.20;8.30;;;16.20;54.70;;;;;;4968452;28;21267;-60
2024/02/18 02:14:26;;;;;;;12.70;9.30;;;16.30;54.50;;;;;;4982178;28;20442;-60
2024/02/18 02:16:52;;;;;;;10.60;7.10;;;16.30;54.20;;;;;;4999531;28;20525;-59
2024/02/18 02:19:20;;;;;;;8.87;7.97;;;16.30;54.30;;;;;;4971809;28;20196;-60
2024/02/18 02:21:46;;;;;;;12.53;8.10;;;16.30;54.80;;;;;;4968221;28;20269;-60
2024/02/18 02:24:11;;;;;;;7.70;6.63;;;16.30;54.60;;;;;;4980736;28;20439;-59
2024/02/18 02:26:41;;;;;;;9.40;8.03;;;16.30;54.40;;;;;;5017088;28;20207;-60
2024/02/18 02:29:11;;;;;;;8.57;7.40;;;16.20;54.60;;;;;;4978838;28;20183;-60
2024/02/18 02:31:41;;;;;;;8.50;7.70;;;16.20;54.90;;;;;;4992479;28;20430;-61
2024/02/18 02:34:07;;;;;;;8.37;7.40;;;16.20;54.50;;;;;;4964136;28;20466;-60
2024/02/18 02:36:33;;;;;;;8.03;7.33;;;16.10;55.00;;;;;;4973790;28;21129;-59
2024/02/18 02:38:58;;;;;;;9.33;7.70;;;16.10;54.60;;;;;;4983016;28;20188;-61
2024/02/18 02:41:24;;;;;;;8.13;7.43;;;16.10;55.00;;;;;;5004378;28;20233;-59
2024/02/18 02:43:50;;;;;;;7.43;6.73;;;16.00;54.90;;;;;;4968623;28;20233;-61
2024/02/18 02:46:16;;;;;;;8.27;7.40;;;16.10;54.80;;;;;;5017035;28;20210;-60
2024/02/18 02:48:41;;;;;;;9.07;8.17;;;16.10;54.90;;;;;;4967610;28;20831;-59
2024/02/18 02:51:07;;;;;;;8.73;7.83;;;16.10;54.90;;;;;;4980798;28;20179;-60
2024/02/18 02:53:33;;;;;;;8.00;7.20;;;16.10;54.90;;;;;;4990814;28;20185;-60
2024/02/18 02:56:00;;;;;;;7.93;7.17;;;16.10;55.10;;;;;;5035019;28;20584;-60
2024/02/18 02:58:25;;;;;;;7.50;6.80;;;16.10;55.00;;;;;;4980686;28;20191;-61
2024/02/18 03:00:51;;;;;;;7.53;6.77;;;16.00;55.20;;;;;;5024902;28;20419;-60
2024/02/18 03:03:17;;;;;;;9.10;7.93;;;15.90;55.10;;;;;;4972733;28;20486;-60
2024/02/18 03:05:43;;;;;;;8.27;7.43;;;16.00;54.80;;;;;;4967058;28;20312;-60
2024/02/18 03:08:09;;;;;;;8.00;7.20;;;16.10;54.30;;;;;;4970789;28;20836;-60
2024/02/18 03:10:37;;;;;;;8.27;7.47;;;16.20;54.00;;;;;;4972526;28;20201;-59
2024/02/18 03:13:04;;;;;;;11.03;7.40;;;16.20;53.90;;;;;;4977560;28;20187;-59
2024/02/18 03:15:30;;;;;;;8.63;7.10;;;16.20;53.80;;;;;;4969216;28;20512;-58
2024/02/18 03:17:58;;;;;;;7.80;7.10;;;16.20;53.90;;;;;;4982029;28;20455;-60
2024/02/18 03:20:24;;;;;;;8.70;7.53;;;16.20;53.90;;;;;;5020721;28;20573;-58
2024/02/18 03:22:50;;;;;;;8.13;7.37;;;16.30;53.70;;;;;;4999641;28;20470;-60
2024/02/18 03:25:16;;;;;;;9.23;8.33;;;16.20;54.60;;;;;;4978273;28;20438;-60
2024/02/18 03:27:42;;;;;;;9.33;7.07;;;16.20;54.10;;;;;;4972810;28;20192;-59
2024/02/18 03:30:09;;;;;;;8.33;7.53;;;16.20;54.00;;;;;;4967803;28;20445;-58
2024/02/18 03:32:35;;;;;;;7.17;6.47;;;16.20;54.00;;;;;;4966912;28;20187;-60
2024/02/18 03:35:04;;;;;;;7.00;6.40;;;16.10;53.50;;;;;;4987427;28;20846;-58
2024/02/18 03:37:30;;;;;;;8.90;8.00;;;16.10;53.60;;;;;;4970199;28;20462;-59
2024/02/18 03:39:56;;;;;;;8.13;7.33;;;15.90;53.60;;;;;;4995417;28;20530;-60
2024/02/18 03:42:22;;;;;;;10.77;8.53;;;15.90;53.60;;;;;;4976084;28;20557;-61
2024/02/18 03:44:48;;;;;;;8.73;7.23;;;15.90;53.70;;;;;;4977590;28;20198;-59
2024/02/18 03:47:14;;;;;;;10.17;8.73;;;15.90;53.70;;;;;;4966560;28;20273;-60
2024/02/18 03:49:39;;;;;;;7.73;7.03;;;15.90;53.50;;;;;;4972313;28;20450;-60
2024/02/18 03:52:06;;;;;;;9.20;8.30;;;15.80;53.50;;;;;;5002192;28;20495;-59
2024/02/18 03:54:31;;;;;;;9.00;8.10;;;15.60;53.90;;;;;;4971700;28;20215;-58
2024/02/18 03:56:57;;;;;;;9.53;8.10;;;15.20;54.30;;;;;;4979025;28;20787;-61
2024/02/18 03:59:23;;;;;;;8.87;7.97;;;15.00;55.60;;;;;;4976910;28;20333;-59
2024/02/18 04:01:48;;;;;;;11.67;8.37;;;15.20;55.60;;;;;;4966755;28;20211;-61
2024/02/18 04:04:14;;;;;;;9.00;8.00;;;15.20;55.00;;;;;;4972725;28;22303;-59
2024/02/18 04:06:40;;;;;;;9.37;7.20;;;15.20;55.40;;;;;;4970379;28;20207;-60
2024/02/18 04:09:07;;;;;;;11.60;7.77;;;15.20;54.80;;;;;;4966330;28;20446;-58
2024/02/18 04:11:33;;;;;;;10.53;7.70;;;15.20;54.90;;;;;;4967924;28;20192;-60
2024/02/18 04:13:59;;;;;;;8.73;7.83;;;15.10;55.40;;;;;;4979172;28;20469;-59
2024/02/18 04:16:24;;;;;;;8.47;7.67;;;15.00;55.50;;;;;;5009373;28;20492;-59
2024/02/18 04:18:50;;;;;;;7.77;6.97;;;15.10;55.70;;;;;;4967128;28;20267;-58
2024/02/18 04:21:15;;;;;;;8.80;7.17;;;15.10;55.20;;;;;;5002368;28;20590;-60
2024/02/18 04:23:41;;;;;;;7.20;6.40;;;15.20;54.90;;;;;;5004347;28;20763;-60
2024/02/18 04:26:07;;;;;;;7.63;6.77;;;15.30;55.10;;;;;;5012466;28;20339;-59
2024/02/18 04:28:32;;;;;;;8.50;6.67;;;15.40;54.70;;;;;;4967613;28;20233;-58
2024/02/18 04:30:58;;;;;;;8.43;7.63;;;15.60;54.60;;;;;;4996909;28;20191;-60
2024/02/18 04:33:24;;;;;;;8.30;7.23;;;15.70;53.80;;;;;;4966254;28;20191;-60
2024/02/18 04:35:50;;;;;;;7.47;6.60;;;15.60;53.60;;;;;;4974050;28;20437;-60
2024/02/18 04:38:15;;;;;;;8.20;7.40;;;15.70;53.80;;;;;;5001953;28;20274;-61
2024/02/18 04:40:41;;;;;;;8.13;7.30;;;15.60;53.20;;;;;;4964722;28;20196;-61
2024/02/18 04:43:09;;;;;;;8.10;7.30;;;15.50;53.20;;;;;;4968509;28;20576;-60
2024/02/18 04:45:35;;;;;;;9.10;8.20;;;15.50;53.40;;;;;;5009020;28;20458;-60
2024/02/18 04:48:01;;;;;;;8.73;7.93;;;15.50;53.50;;;;;;5000766;28;20512;-60
2024/02/18 04:50:26;;;;;;;8.13;7.30;;;15.40;53.80;;;;;;5021282;28;20595;-60
2024/02/18 04:52:52;;;;;;;8.77;7.60;;;15.30;53.60;;;;;;4973546;28;20190;-57
2024/02/18 04:55:17;;;;;;;8.93;8.13;;;15.20;53.60;;;;;;4999366;28;20599;-60
2024/02/18 04:57:44;;;;;;;7.90;7.10;;;15.00;53.80;;;;;;5047558;28;20199;-59
2024/02/18 05:00:10;;;;;;;11.80;8.87;;;15.00;54.20;;;;;;5037213;28;20184;-60
2024/02/18 05:02:36;;;;;;;8.20;7.30;;;14.90;54.30;;;;;;5036933;28;20461;-59
2024/02/18 05:05:04;;;;;;;9.30;7.40;;;14.80;54.80;;;;;;4987808;28;20434;-58
2024/02/18 05:07:30;;;;;;;9.27;6.60;;;14.80;55.00;;;;;;5032334;28;20441;-58
2024/02/18 05:09:56;;;;;;;10.00;7.37;;;14.70;55.10;;;;;;5055907;28;20993;-60
2024/02/18 05:12:21;;;;;;;8.70;7.80;;;14.70;55.30;;;;;;4987635;28;20282;-60
2024/02/18 05:14:47;;;;;;;10.07;6.93;;;14.70;55.60;;;;;;4990813;28;20765;-59
2024/02/18 05:17:12;;;;;;;9.10;7.40;;;14.70;55.40;;;;;;4989307;28;20234;-59
2024/02/18 05:19:38;;;;;;;8.90;7.87;;;14.60;55.20;;;;;;4980794;28;20191;-60
2024/02/18 05:22:04;;;;;;;7.47;6.53;;;14.50;56.10;;;;;;4967176;28;20302;-58
2024/02/18 05:24:31;;;;;;;6.47;5.90;;;14.50;56.20;;;;;;5001374;28;20710;-57
2024/02/18 05:26:57;;;;;;;8.80;7.40;;;14.70;56.60;;;;;;4966792;28;21042;-60
2024/02/18 05:29:23;;;;;;;9.87;7.50;;;14.70;56.20;;;;;;4963314;28;20442;-60
2024/02/18 05:31:48;;;;;;;9.00;8.00;;;14.80;55.60;;;;;;4962450;28;20207;-59
2024/02/18 05:34:14;;;;;;;8.33;7.53;;;14.90;55.20;;;;;;4965158;28;20183;-59
2024/02/18 05:36:43;;;;;;;8.30;7.50;;;14.90;55.40;;;;;;4962526;28;20727;-59
2024/02/18 05:39:09;;;;;;;10.80;8.17;;;14.90;54.90;;;;;;4963763;28;20247;-60
2024/02/18 05:41:35;;;;;;;7.53;6.83;;;15.00;54.80;;;;;;4968086;28;20471;-58
2024/02/18 05:44:00;;;;;;;10.40;7.17;;;15.00;54.90;;;;;;4967350;28;20486;-59
2024/02/18 05:46:26;;;;;;;8.33;6.97;;;15.00;54.60;;;;;;4974756;28;20204;-60
2024/02/18 05:48:52;;;;;;;10.00;8.00;;;15.10;54.80;;;;;;4994611;28;20188;-60
2024/02/18 05:51:18;;;;;;;7.60;6.90;;;15.10;55.10;;;;;;4968174;28;20451;-60
2024/02/18 05:53:43;;;;;;;8.07;6.53;;;15.10;55.30;;;;;;4967642;28;20211;-61
2024/02/18 05:56:09;;;;;;;10.53;7.03;;;15.10;54.70;;;;;;4976114;28;20249;-59
2024/02/18 05:58:34;;;;;;;7.60;6.63;;;15.00;54.90;;;;;;4967426;28;20187;-59
2024/02/18 06:01:00;;;;;;;8.07;7.27;;;14.90;54.70;;;;;;4964644;28;20608;-58
2024/02/18 06:03:26;;;;;;;7.97;6.60;;;14.80;55.70;;;;;;4966546;28;20218;-60
2024/02/18 06:05:51;;;;;;;8.23;7.43;;;14.70;55.70;;;;;;4966325;28;20226;-58
2024/02/18 06:08:17;;;;;;;7.00;6.30;;;14.50;56.00;;;;;;4965909;28;20183;-60
2024/02/18 06:10:42;;;;;;;10.80;7.30;;;14.40;56.00;;;;;;4965312;28;20598;-60
2024/02/18 06:13:08;;;;;;;7.93;7.13;;;14.50;55.90;;;;;;4965162;28;20552;-59
2024/02/18 06:15:34;;;;;;;8.70;7.80;;;14.50;55.80;;;;;;4964598;28;20187;-59
2024/02/18 06:18:00;;;;;;;15.23;7.27;;;14.40;55.70;;;;;;4962468;28;20192;-60
2024/02/18 06:20:27;;;;;;;8.77;7.90;;;14.30;56.30;;;;;;4963500;28;20195;-60
2024/02/18 06:22:54;;;;;;;12.73;7.80;;;14.20;56.20;;;;;;4962034;28;20475;-59
2024/02/18 06:25:19;;;;;;;28.87;7.90;;;14.00;56.00;;;;;;4966110;28;20434;-59
2024/02/18 06:27:47;;;;;;;12.77;8.10;;;14.00;56.40;;;;;;4965869;28;21063;-59
2024/02/18 06:30:13;;;;;;;11.60;7.50;;;13.60;57.50;;;;;;4966883;28;20196;-60
2024/02/18 06:32:38;;;;;;;8.90;7.40;;;13.60;58.10;;;;;;4965605;28;20530;-58
2024/02/18 06:35:04;;;;;;;14.47;8.33;;;13.70;58.60;;;;;;4993498;28;20505;-59
2024/02/18 06:37:30;;;;;;;12.20;8.73;;;13.60;58.20;;;;;;4965169;28;20211;-60
2024/02/18 06:39:56;;;;;;;9.63;7.47;;;13.80;58.20;;;;;;4962257;28;20443;-60
2024/02/18 06:42:21;;;;;;;17.53;8.73;;;13.70;57.40;;;;;;4961080;28;20223;-59
2024/02/18 06:44:47;;;;;;;16.20;8.10;;;13.80;57.70;;;;;;4963512;28;20191;-58
2024/02/18 06:47:13;;;;;;;9.63;8.50;;;14.00;57.50;;;;;;4962065;28;20237;-59
2024/02/18 06:49:38;;;;;;;16.23;7.77;;;14.00;58.10;;;;;;4962635;28;20198;-61
2024/02/18 06:52:04;;;;;;;9.83;7.93;;;14.20;57.90;;;;;;5000613;28;20430;-59
2024/02/18 06:54:30;;;;;;;17.43;7.50;;;14.10;57.80;;;;;;4983417;28;20196;-60
2024/02/18 06:56:55;;;;;;;14.33;8.07;;;14.30;57.90;;;;;;4985928;28;20203;-60
2024/02/18 06:59:21;;;;;;;13.23;8.60;;;13.90;57.00;;;;;;4988167;28;20187;-61
2024/02/18 07:01:47;;;;;;;11.40;8.23;;;14.00;57.60;;;;;;4971316;28;20242;-58
2024/02/18 07:04:13;;;;;;;8.50;7.57;;;14.00;57.60;;;;;;4991115;28;20212;-59
2024/02/18 07:06:39;;;;;;;8.93;7.60;;;14.10;57.70;;;;;;4979474;28;20438;-59
2024/02/18 07:09:04;;;;;;;10.27;7.77;;;14.10;56.50;;;;;;4988885;28;20189;-60
2024/02/18 07:11:30;;;;;;;8.70;7.73;;;14.20;56.70;;;;;;4969612;28;20191;-60
2024/02/18 07:13:56;;;;;;;9.90;8.40;;;14.30;57.40;;;;;;4988866;28;20183;-60
2024/02/18 07:16:22;;;;;;;7.93;7.20;;;14.40;57.50;;;;;;5002327;28;20298;-59
2024/02/18 07:18:48;;;;;;;7.80;7.10;;;14.70;57.20;;;;;;4984624;28;20682;-61
2024/02/18 07:21:16;;;;;;;8.23;7.50;;;14.90;56.60;;;;;;5007169;28;20512;-59
2024/02/18 07:23:42;;;;;;;8.00;7.20;;;15.20;56.10;;;;;;4995267;28;20651;-58
2024/02/18 07:26:12;;;;;;;9.50;8.60;;;15.30;55.40;;;;;;5000773;28;20572;-59
2024/02/18 07:28:38;;;;;;;7.77;6.97;;;15.30;55.00;;;;;;4992106;28;20180;-59
2024/02/18 07:31:04;;;;;;;8.23;7.53;;;15.40;54.70;;;;;;4983965;28;20805;-59
2024/02/18 07:33:30;;;;;;;7.80;7.10;;;15.40;54.50;;;;;;4992257;28;20421;-59
2024/02/18 07:35:55;;;;;;;9.13;8.17;;;15.40;54.30;;;;;;5018349;28;20443;-58
2024/02/18 07:38:21;;;;;;;9.00;8.10;;;15.10;54.60;;;;;;4981475;28;20195;-61
2024/02/18 07:40:46;;;;;;;9.70;8.67;;;15.00;55.10;;;;;;5024555;28;20180;-61
2024/02/18 07:43:12;;;;;;;9.00;8.13;;;14.90;55.30;;;;;;5001436;28;20218;-59
2024/02/18 07:45:38;;;;;;;10.53;9.43;;;14.80;56.30;;;;;;5007574;28;20279;-58
2024/02/18 07:48:04;;;;;;;11.20;8.70;;;14.80;56.30;;;;;;4991157;28;20195;-60
2024/02/18 07:50:30;;;;;;;9.33;8.43;;;15.00;56.20;;;;;;5005315;28;20200;-58
2024/02/18 07:52:56;;;;;;;11.07;9.87;;;15.00;56.00;;;;;;5002654;28;20462;-59
2024/02/18 07:55:22;;;;;;;10.10;9.10;;;15.20;55.60;;;;;;4982923;28;20826;-59
2024/02/18 07:57:47;;;;;;;11.63;9.50;;;15.30;55.40;;;;;;5000552;28;20289;-58
2024/02/18 08:00:14;;;;;;;9.67;8.77;;;15.50;55.00;;;;;;4992941;28;20288;-60
2024/02/18 08:02:40;;;;;;;10.07;9.07;;;15.60;55.00;;;;;;4971411;28;21135;-60
2024/02/18 08:05:07;;;;;;;10.30;9.30;;;15.80;54.80;;;;;;4981758;28;20472;-60
2024/02/18 08:07:33;;;;;;;11.80;9.97;;;15.80;54.80;;;;;;4968790;28;20207;-61
2024/02/18 08:09:59;;;;;;;9.60;8.70;;;15.90;54.90;;;;;;5011383;28;20434;-60
2024/02/18 08:12:24;;;;;;;10.40;9.40;;;16.00;55.20;;;;;;4970861;28;20187;-60
2024/02/18 08:14:51;;;;;;;10.07;8.97;;;16.20;55.10;;;;;;4990263;28;20625;-61
2024/02/18 08:17:17;;;;;;;9.40;8.40;;;16.30;54.70;;;;;;4992515;28;20215;-61
2024/02/18 08:19:43;;;;;;;10.60;9.43;;;16.30;54.80;;;;;;5034424;28;20502;-61
2024/02/18 08:22:08;;;;;;;9.97;8.87;;;16.30;54.30;;;;;;4975376;28;20211;-61
2024/02/18 08:24:34;;;;;;;9.50;8.50;;;16.40;54.80;;;;;;5041445;28;20429;-60
2024/02/18 08:27:00;;;;;;;8.50;7.70;;;15.70;55.60;;;;;;5011505;28;20323;-61
2024/02/18 08:29:26;;;;;;;9.90;8.90;;;15.50;56.30;;;;;;5021750;28;20274;-61
2024/02/18 08:31:51;;;;;;;8.67;7.87;;;14.90;57.00;;;;;;5033425;28;20422;-61
2024/02/18 08:34:17;;;;;;;9.50;8.60;;;14.90;58.10;;;;;;5023491;28;20766;-60
2024/02/18 08:36:43;;;;;;;9.07;8.17;;;15.10;57.60;;;;;;4977392;28;20203;-59
2024/02/18 08:39:08;;;;;;;8.40;7.60;;;15.10;57.40;;;;;;4983023;28;20191;-58
2024/02/18 08:41:34;;;;;;;9.07;8.23;;;15.30;57.50;;;;;;5032499;28;20180;-61
2024/02/18 08:43:59;;;;;;;9.80;8.30;;;15.50;56.80;;;;;;5024217;28;20188;-61
2024/02/18 08:46:26;;;;;;;9.20;8.30;;;15.70;56.60;;;;;;4990255;28;20212;-58
2024/02/18 08:48:51;;;;;;;10.57;9.53;;;15.40;56.10;;;;;;5015072;28;20414;-59
2024/02/18 08:51:17;;;;;;;9.60;8.70;;;15.10;56.80;;;;;;5032190;28;20210;-61
2024/02/18 08:53:43;;;;;;;11.17;10.07;;;15.20;57.30;;;;;;5031940;28;20247;-59
2024/02/18 08:56:10;;;;;;;9.90;8.90;;;15.10;56.60;;;;;;4990862;28;20598;-59
2024/02/18 08:58:36;;;;;;;9.67;8.70;;;14.90;57.30;;;;;;5029111;28;20449;-60
2024/02/18 09:01:02;;;;;;;8.10;7.40;;;14.90;58.20;;;;;;4994487;28;20571;-60
2024/02/18 09:03:27;;;;;;;9.77;8.50;;;15.00;57.70;;;;;;5017584;28;20570;-60
2024/02/18 09:05:53;;;;;;;12.40;9.40;;;15.20;57.50;;;;;;5027649;28;20466;-59
2024/02/18 09:08:20;;;;;;;8.47;7.70;;;15.40;57.70;;;;;;5029112;28;20226;-60
2024/02/18 09:10:46;;;;;;;8.27;7.53;;;15.70;57.10;;;;;;5003077;28;21012;-60
2024/02/18 09:13:12;;;;;;;11.00;7.80;;;15.90;55.50;;;;;;4997591;28;20427;-60
2024/02/18 09:15:37;;;;;;;8.80;7.93;;;16.10;55.60;;;;;;5007647;28;20171;-59
2024/02/18 09:18:03;;;;;;;10.00;8.80;;;16.30;54.30;;;;;;5013180;28;20718;-60
2024/02/18 09:20:29;;;;;;;8.10;6.60;;;16.50;54.30;;;;;;4972829;28;20547;-62
2024/02/18 09:22:55;;;;;;;8.77;7.97;;;16.70;54.00;;;;;;4965049;28;20211;-62
2024/02/18 09:25:21;;;;;;;8.63;6.97;;;16.70;54.10;;;;;;4967329;28;20229;-61
2024/02/18 09:27:47;;;;;;;10.03;8.80;;;16.70;53.40;;;;;;4991718;28;20676;-59
2024/02/18 09:30:13;;;;;;;9.57;8.63;;;16.80;53.60;;;;;;5015445;28;20525;-62
2024/02/18 09:32:40;;;;;;;10.47;9.47;;;17.00;53.40;;;;;;5018506;28;20180;-61
2024/02/18 09:35:06;;;;;;;9.67;8.67;;;17.20;53.20;;;;;;4967062;28;20446;-59
2024/02/18 09:37:31;;;;;;;9.63;8.73;;;17.40;52.80;;;;;;4992209;28;20466;-60
2024/02/18 09:39:57;;;;;;;9.30;8.40;;;17.70;52.20;;;;;;5005311;28;20183;-60
2024/02/18 09:42:23;;;;;;;9.10;8.23;;;17.90;51.70;;;;;;4976169;28;20224;-61
2024/02/18 09:44:51;;;;;;;8.90;8.07;;;18.20;51.30;;;;;;4986841;28;20184;-61
2024/02/18 09:47:18;;;;;;;9.47;8.57;;;18.50;50.80;;;;;;4966201;28;20463;-61
2024/02/18 09:49:43;;;;;;;9.83;8.83;;;18.60;50.40;;;;;;4968161;28;20454;-61
2024/02/18 09:52:12;;;;;;;9.30;8.40;;;18.80;50.00;;;;;;4966865;28;20459;-61
2024/02/18 09:54:38;;;;;;;8.87;7.80;;;19.00;50.00;;;;;;4967759;28;20288;-60
2024/02/18 09:57:06;;;;;;;8.77;7.50;;;19.10;49.70;;;;;;4972022;28;20540;-60
2024/02/18 09:59:32;;;;;;;9.33;8.20;;;19.10;49.70;;;;;;4963890;28;20187;-61
2024/02/18 10:01:59;;;;;;;8.40;7.60;;;19.10;49.40;;;;;;4964858;28;20474;-61
2024/02/18 10:04:25;;;;;;;9.60;8.70;;;19.10;48.80;;;;;;4965966;28;20192;-61
2024/02/18 10:06:53;;;;;;;9.50;8.50;;;19.10;49.50;;;;;;5038665;28;20530;-61
2024/02/18 10:09:18;;;;;;;7.63;6.87;;;19.10;49.80;;;;;;5025421;28;20467;-61
2024/02/18 10:11:44;;;;;;;9.10;8.30;;;19.10;49.90;;;;;;5015364;28;20443;-59
2024/02/18 10:14:10;;;;;;;9.17;7.87;;;19.00;49.40;;;;;;4985915;28;20194;-61
2024/02/18 10:16:40;;;;;;;8.43;7.63;;;19.20;49.30;;;;;;4977565;28;20989;-61
2024/02/18 10:19:09;;;;;;;7.40;6.70;;;19.20;49.10;;;;;;4985236;28;20195;-60
2024/02/18 10:21:34;;;;;;;7.77;6.97;;;19.30;48.90;;;;;;4972068;28;20430;-61
2024/02/18 10:24:02;;;;;;;9.03;8.20;;;19.50;48.90;;;;;;5009020;28;20517;-62
2024/02/18 10:26:28;;;;;;;9.00;8.17;;;19.50;48.90;;;;;;4978116;28;20207;-60
2024/02/18 10:28:53;;;;;;;8.50;7.70;;;19.50;48.90;;;;;;4974096;28;20849;-60
2024/02/18 10:31:19;;;;;;;8.47;7.73;;;19.60;48.40;;;;;;4986087;28;20206;-61
2024/02/18 10:33:44;;;;;;;9.17;8.27;;;19.70;47.80;;;;;;4992441;28;20202;-60
2024/02/18 10:36:12;;;;;;;10.40;8.03;;;19.70;47.60;;;;;;4996117;28;20266;-61
2024/02/18 10:38:48;;;;;;;8.97;8.13;;;19.70;47.70;;;;;;4970631;28;20211;-61
2024/02/18 10:41:19;;;;;;;8.33;7.53;;;19.70;48.20;;;;;;4972299;28;20437;-61
2024/02/18 10:43:52;;;;;;;8.37;7.53;;;19.70;48.00;;;;;;4995868;28;20474;-61
2024/02/18 10:46:23;;;;;;;8.20;7.40;;;19.80;47.90;;;;;;4968089;28;20558;-61
2024/02/18 10:48:55;;;;;;;8.60;6.67;;;19.80;47.60;;;;;;4970796;28;20419;-60
2024/02/18 10:51:28;;;;;;;7.37;6.63;;;19.70;47.90;;;;;;4996264;28;20778;-62
2024/02/18 10:54:19;;;;;;;8.03;7.33;;;19.80;48.20;;;;;;5002071;28;20434;-61
2024/02/18 10:56:45;;;;;;;6.30;5.80;;;19.90;47.00;;;;;;4986431;28;20942;-61
2024/02/18 10:59:11;;;;;;;7.00;5.63;;;20.10;46.60;;;;;;5001560;28;21033;-61
2024/02/18 11:01:45;;;;;;;9.60;6.20;;;20.20;45.50;;;;;;4979885;28;20555;-61
2024/02/18 11:04:12;;;;;;;5.03;4.53;;;20.30;44.80;;;;;;5008792;28;20252;-61
2024/02/18 11:06:40;;;;;;;8.60;5.73;;;20.40;44.40;;;;;;5053706;28;20434;-60
2024/02/18 11:09:11;;;;;;;6.60;5.90;;;20.50;44.30;;;;;;5051856;28;20424;-59
2024/02/18 11:11:38;;;;;;;5.37;4.87;;;19.90;43.10;;;;;;5017821;28;20413;-62
2024/02/18 11:14:06;;;;;;;6.00;5.40;;;19.90;44.40;;;;;;4994602;28;20445;-61
2024/02/18 11:16:32;;;;;;;5.17;4.77;;;19.80;43.90;;;;;;4980954;28;20450;-62
2024/02/18 11:18:59;;;;;;;5.07;4.57;;;19.90;44.50;;;;;;4977385;28;20435;-61
2024/02/18 11:21:25;;;;;;;5.33;4.63;;;20.10;43.80;;;;;;4967501;28;20411;-62
2024/02/18 11:23:55;;;;;;;5.90;5.33;;;20.20;43.60;;;;;;4980184;28;20496;-60
2024/02/18 11:26:21;;;;;;;6.97;4.83;;;20.30;43.20;;;;;;5012252;28;20495;-61
2024/02/18 11:28:47;;;;;;;6.17;5.43;;;20.40;44.10;;;;;;5016349;28;20474;-61
2024/02/18 11:31:26;;;;;;;5.30;4.77;;;20.50;43.40;;;;;;4967491;28;20974;-61
2024/02/18 11:33:52;;;;;;;4.83;4.30;;;20.60;42.70;;;;;;4960188;28;20434;-61
2024/02/18 11:36:18;;;;;;;4.57;3.90;;;20.60;42.60;;;;;;5006465;28;20434;-61
2024/02/18 11:38:45;;;;;;;5.40;4.57;;;20.60;42.80;;;;;;4994367;28;20433;-62
2024/02/18 11:41:41;;;;;;;4.80;4.40;;;20.60;42.60;;;;;;4987363;28;20438;-62
2024/02/18 11:44:10;;;;;;;6.10;4.87;;;20.60;41.70;;;;;;4997412;28;20442;-59
2024/02/18 11:46:39;;;;;;;4.87;4.43;;;20.20;42.70;;;;;;4972073;28;20994;-60
2024/02/18 11:49:05;;;;;;;4.83;4.27;;;20.30;43.20;;;;;;5043615;28;20414;-61
2024/02/18 11:51:31;;;;;;;5.33;4.00;;;20.40;43.00;;;;;;5008034;28;20420;-62
2024/02/18 11:53:57;;;;;;;6.43;4.43;;;20.40;42.70;;;;;;5001367;28;20466;-61
2024/02/18 11:56:22;;;;;;;4.80;4.40;;;20.50;43.60;;;;;;4970292;28;20219;-59
2024/02/18 11:58:49;;;;;;;5.37;4.40;;;20.60;43.50;;;;;;5031322;28;20195;-62
2024/02/18 12:01:16;;;;;;;5.17;4.63;;;20.70;42.50;;;;;;4987017;28;20194;-62
2024/02/18 12:03:46;;;;;;;4.60;4.20;;;20.30;42.10;;;;;;5008815;28;20465;-62
2024/02/18 12:06:13;;;;;;;5.30;4.80;;;20.30;43.10;;;;;;5049995;28;20524;-62
2024/02/18 12:08:38;;;;;;;5.77;4.77;;;20.50;42.90;;;;;;5035829;28;20978;-62
2024/02/18 12:11:05;;;;;;;5.10;4.40;;;20.40;42.60;;;;;;5002844;28;20431;-61
2024/02/18 12:13:31;;;;;;;4.30;3.90;;;20.40;43.30;;;;;;5016374;28;20278;-62
2024/02/18 12:15:58;;;;;;;4.73;4.33;;;20.50;43.10;;;;;;5037025;28;20438;-62
2024/02/18 12:18:27;;;;;;;4.47;3.80;;;20.60;42.60;;;;;;5025094;28;20491;-61
2024/02/18 12:20:53;;;;;;;4.27;3.87;;;20.60;42.10;;;;;;5017456;28;20422;-62
2024/02/18 12:23:23;;;;;;;4.07;3.67;;;20.30;41.30;;;;;;5012447;28;20465;-61
2024/02/18 12:25:49;;;;;;;4.93;4.43;;;20.40;42.30;;;;;;4987392;28;20883;-62
2024/02/18 12:28:15;;;;;;;5.23;4.73;;;20.40;41.90;;;;;;5012142;28;20789;-61
2024/02/18 12:30:42;;;;;;;5.17;4.33;;;20.40;41.60;;;;;;5024239;28;20418;-62
2024/02/18 12:33:09;;;;;;;4.37;4.03;;;20.40;41.70;;;;;;5012637;28;20446;-61
2024/02/18 12:35:35;;;;;;;4.90;4.40;;;20.50;42.20;;;;;;5060260;28;20446;-62
2024/02/18 12:38:02;;;;;;;4.80;4.37;;;20.40;41.90;;;;;;5020503;28;20450;-61
2024/02/18 12:40:28;;;;;;;4.10;3.70;;;20.50;42.20;;;;;;5027811;28;20275;-62